createdAt,value
2022-11-24T00:00:33.901Z,94460.50
2022-11-24T00:03:00.356Z,94474.94
2022-11-24T00:05:27.017Z,94479.84
2022-11-24T00:07:53.837Z,94479.75
2022-11-24T00:10:20.243Z,94477.09
2022-11-24T00:12:46.596Z,94486.13
2022-11-24T00:15:12.998Z,94492.03
2022-11-24T00:17:39.528Z,94491.56
2022-11-24T00:20:05.947Z,94489.75
2022-11-24T00:22:32.346Z,94488.44
2022-11-24T00:24:58.724Z,94487.31
2022-11-24T00:27:25.139Z,94484.88
2022-11-24T00:29:51.665Z,94495.41
2022-11-24T00:32:19.571Z,94495.03
2022-11-24T00:34:45.951Z,94490.16
2022-11-24T00:37:19.498Z,94488.34
2022-11-24T00:39:45.866Z,94494.41
2022-11-24T00:42:12.273Z,94491.00
2022-11-24T00:44:38.781Z,94499.69
2022-11-24T00:47:05.239Z,94505.94
2022-11-24T00:49:31.665Z,94506.09
2022-11-24T00:51:58.028Z,94514.13
2022-11-24T00:54:24.384Z,94513.13
2022-11-24T00:56:50.763Z,94510.03
2022-11-24T00:59:19.171Z,94521.69
2022-11-24T01:01:45.563Z,94522.00
2022-11-24T01:04:12.198Z,94528.59
2022-11-24T01:06:38.559Z,94527.13
2022-11-24T01:09:04.973Z,94530.88
2022-11-24T01:11:31.561Z,94537.94
2022-11-24T01:13:57.925Z,94536.13
2022-11-24T01:16:24.372Z,94540.38
2022-11-24T01:18:50.878Z,94542.53
2022-11-24T01:21:17.621Z,94538.59
2022-11-24T01:23:43.990Z,94543.34
2022-11-24T01:26:10.347Z,94544.31
2022-11-24T01:28:38.554Z,94548.59
2022-11-24T01:31:08.614Z,94556.28
2022-11-24T01:33:35.010Z,94553.00
2022-11-24T01:36:01.395Z,94555.31
2022-11-24T01:38:27.782Z,94548.59
2022-11-24T01:40:54.152Z,94554.00
2022-11-24T01:43:20.542Z,94555.97
2022-11-24T01:45:47.023Z,94552.63
2022-11-24T01:48:13.414Z,94558.22
2022-11-24T01:50:39.854Z,94558.41
2022-11-24T01:53:06.239Z,94565.28
2022-11-24T01:55:32.624Z,94564.97
2022-11-24T01:57:58.991Z,94565.47
2022-11-24T02:00:25.339Z,94570.91
2022-11-24T02:02:51.741Z,94576.84
2022-11-24T02:05:20.264Z,94577.13
2022-11-24T02:07:46.800Z,94568.28
2022-11-24T02:10:13.205Z,94574.69
2022-11-24T02:12:39.586Z,94583.56
2022-11-24T02:15:05.964Z,94579.59
2022-11-24T02:17:32.413Z,94579.13
2022-11-24T02:19:58.841Z,94572.88
2022-11-24T02:22:25.193Z,94571.06
2022-11-24T02:24:51.567Z,94570.06
2022-11-24T02:27:18.340Z,94570.25
2022-11-24T02:29:44.697Z,94572.56
2022-11-24T02:32:11.049Z,94565.88
2022-11-24T02:34:37.389Z,94570.31
2022-11-24T02:37:03.872Z,94576.53
2022-11-24T02:39:32.535Z,94583.94
2022-11-24T02:41:58.962Z,94582.16
2022-11-24T02:44:25.736Z,94591.16
2022-11-24T02:46:52.293Z,94576.06
2022-11-24T02:49:19.738Z,94584.94
2022-11-24T02:51:46.306Z,94582.31
2022-11-24T02:54:12.924Z,94579.50
2022-11-24T02:56:39.523Z,94586.09
2022-11-24T02:59:07.149Z,94571.94
2022-11-24T03:01:33.657Z,94576.06
2022-11-24T03:04:00.127Z,94577.19
2022-11-24T03:06:26.504Z,94581.16
2022-11-24T03:08:53.360Z,94584.78
2022-11-24T03:11:19.711Z,94576.06
2022-11-24T03:13:46.493Z,94570.97
2022-11-24T03:16:13.316Z,94572.59
2022-11-24T03:18:39.762Z,94576.22
2022-11-24T03:21:06.198Z,94576.88
2022-11-24T03:23:33.647Z,94575.09
2022-11-24T03:26:00.166Z,94570.63
2022-11-24T03:28:26.838Z,94577.19
2022-11-24T03:30:53.484Z,94575.22
2022-11-24T03:33:20.032Z,94577.06
2022-11-24T03:35:46.767Z,94575.22
2022-11-24T03:38:13.285Z,94576.88
2022-11-24T03:40:39.695Z,94581.97
2022-11-24T03:43:06.154Z,94589.38
2022-11-24T03:45:48.040Z,94590.50
2022-11-24T03:48:14.597Z,94588.72
2022-11-24T03:50:41.111Z,94590.03
2022-11-24T03:53:07.853Z,94585.25
2022-11-24T03:55:35.009Z,94578.53
2022-11-24T03:58:01.522Z,94580.66
2022-11-24T04:00:27.940Z,94583.47
2022-11-24T04:02:54.499Z,94586.75
2022-11-24T04:05:20.959Z,94584.13
2022-11-24T04:07:47.439Z,94587.41
2022-11-24T04:10:13.859Z,94592.81
2022-11-24T04:12:40.622Z,94592.47
2022-11-24T04:15:07.070Z,94595.94
2022-11-24T04:17:33.727Z,94591.63
2022-11-24T04:20:00.270Z,94591.63
2022-11-24T04:22:26.795Z,94584.75
2022-11-24T04:24:53.212Z,94582.13
2022-11-24T04:27:19.950Z,94592.31
2022-11-24T04:29:46.689Z,94586.38
2022-11-24T04:32:13.245Z,94589.00
2022-11-24T04:34:39.704Z,94586.38
2022-11-24T04:37:06.261Z,94579.31
2022-11-24T04:39:32.632Z,94592.63
2022-11-24T04:42:01.304Z,94587.50
2022-11-24T04:44:27.719Z,94601.16
2022-11-24T04:46:54.305Z,94612.50
2022-11-24T04:49:20.827Z,94616.63
2022-11-24T04:51:47.287Z,94616.63
2022-11-24T04:54:13.810Z,94622.22
2022-11-24T04:56:40.564Z,94619.25
2022-11-24T04:59:08.597Z,94621.75
2022-11-24T05:01:36.948Z,94618.09
2022-11-24T05:04:03.533Z,94608.72
2022-11-24T05:06:30.102Z,94610.38
2022-11-24T05:08:56.511Z,94616.97
2022-11-24T05:11:22.909Z,94614.00
2022-11-24T05:13:49.250Z,94607.09
2022-11-24T05:16:15.704Z,94618.59
2022-11-24T05:18:42.537Z,94626.81
2022-11-24T05:21:11.627Z,94637.16
2022-11-24T05:23:38.023Z,94628.63
2022-11-24T05:26:04.584Z,94636.69
2022-11-24T05:28:31.017Z,94640.75
2022-11-24T05:30:57.454Z,94632.53
2022-11-24T05:33:26.128Z,94634.16
2022-11-24T05:35:54.828Z,94629.25
2022-11-24T05:38:21.849Z,94633.84
2022-11-24T05:40:48.203Z,94630.19
2022-11-24T05:43:14.827Z,94634.31
2022-11-24T05:45:41.363Z,94635.34
2022-11-24T05:48:07.730Z,94637.97
2022-11-24T05:50:34.955Z,94641.91
2022-11-24T05:53:01.382Z,94643.88
2022-11-24T05:55:29.170Z,94635.81
2022-11-24T05:57:55.683Z,94645.84
2022-11-24T06:00:22.835Z,94646.00
2022-11-24T06:02:50.275Z,94648.31
2022-11-24T06:05:16.666Z,94657.19
2022-11-24T06:07:43.174Z,94656.38
2022-11-24T06:10:09.639Z,94648.31
2022-11-24T06:12:36.488Z,94653.75
2022-11-24T06:15:02.858Z,94657.34
2022-11-24T06:17:29.275Z,94647.16
2022-11-24T06:19:55.864Z,94652.06
2022-11-24T06:22:22.637Z,94652.06
2022-11-24T06:24:49.011Z,94648.78
2022-11-24T06:27:16.442Z,94647.81
2022-11-24T06:29:42.832Z,94640.41
2022-11-24T06:32:09.414Z,94636.00
2022-11-24T06:34:36.242Z,94634.69
2022-11-24T06:37:02.984Z,94637.34
2022-11-24T06:39:31.819Z,94629.44
2022-11-24T06:41:58.349Z,94626.66
2022-11-24T06:44:25.735Z,94636.34
2022-11-24T06:46:54.315Z,94627.66
2022-11-24T06:49:20.856Z,94632.41
2022-11-24T06:51:47.929Z,94629.78
2022-11-24T06:54:14.485Z,94629.63
2022-11-24T06:56:40.923Z,94631.75
2022-11-24T06:59:07.363Z,94632.59
2022-11-24T07:01:33.743Z,94632.59
2022-11-24T07:04:00.167Z,94626.84
2022-11-24T07:06:26.546Z,94620.91
2022-11-24T07:08:56.061Z,94641.47
2022-11-24T07:11:22.423Z,94641.97
2022-11-24T07:13:48.887Z,94649.84
2022-11-24T07:16:15.418Z,94657.38
2022-11-24T07:18:42.178Z,94661.50
2022-11-24T07:21:08.720Z,94670.53
2022-11-24T07:23:35.275Z,94675.50
2022-11-24T07:26:06.552Z,94685.53
2022-11-24T07:28:33.755Z,94688.16
2022-11-24T07:31:00.161Z,94695.88
2022-11-24T07:33:26.862Z,94706.06
2022-11-24T07:35:53.406Z,94697.84
2022-11-24T07:38:20.253Z,94702.25
2022-11-24T07:40:47.366Z,94699.59
2022-11-24T07:43:18.705Z,94703.06
2022-11-24T07:45:46.823Z,94701.75
2022-11-24T07:48:13.658Z,94703.38
2022-11-24T07:50:40.192Z,94708.97
2022-11-24T07:53:06.737Z,94715.19
2022-11-24T07:55:33.607Z,94717.81
2022-11-24T07:58:00.040Z,94713.66
2022-11-24T08:00:26.538Z,94720.09
2022-11-24T08:02:55.468Z,94718.75
2022-11-24T08:05:22.261Z,94720.09
2022-11-24T08:07:48.901Z,94732.09
2022-11-24T08:10:15.401Z,94729.59
2022-11-24T08:12:43.818Z,94726.59
2022-11-24T08:15:11.351Z,94739.16
2022-11-24T08:17:38.044Z,94735.16
2022-11-24T08:20:04.473Z,94744.59
2022-11-24T08:22:30.851Z,94730.75
2022-11-24T08:25:00.043Z,94740.91
2022-11-24T08:27:26.465Z,94731.69
2022-11-24T08:29:53.043Z,94730.91
2022-11-24T08:32:22.469Z,94717.09
2022-11-24T08:34:49.104Z,94715.47
2022-11-24T08:37:15.616Z,94709.69
2022-11-24T08:39:42.004Z,94708.91
2022-11-24T08:42:08.563Z,94720.41
2022-11-24T08:44:36.415Z,94715.47
2022-11-24T08:47:05.483Z,94714.81
2022-11-24T08:49:32.055Z,94719.47
2022-11-24T08:51:58.442Z,94718.44
2022-11-24T08:54:24.901Z,94728.41
2022-11-24T08:56:51.256Z,94726.81
2022-11-24T08:59:17.803Z,94732.59
2022-11-24T09:01:44.563Z,94730.47
2022-11-24T09:04:11.043Z,94741.34
2022-11-24T09:06:37.590Z,94744.25
2022-11-24T09:09:03.912Z,94746.41
2022-11-24T09:11:37.996Z,94739.75
2022-11-24T09:14:04.464Z,94756.03
2022-11-24T09:16:31.054Z,94760.44
2022-11-24T09:19:02.873Z,94769.28
2022-11-24T09:21:29.497Z,94767.75
2022-11-24T09:23:55.949Z,94775.97
2022-11-24T09:26:22.284Z,94773.56
2022-11-24T09:28:49.181Z,94783.28
2022-11-24T09:31:16.156Z,94781.00
2022-11-24T09:33:45.485Z,94785.06
2022-11-24T09:36:12.038Z,94779.16
2022-11-24T09:38:38.440Z,94791.13
2022-11-24T09:41:04.883Z,94790.94
2022-11-24T09:43:31.714Z,94795.91
2022-11-24T09:46:05.385Z,94792.41
2022-11-24T09:48:32.314Z,94791.78
2022-11-24T09:50:58.760Z,94803.84
2022-11-24T09:53:25.337Z,94802.91
2022-11-24T09:55:51.831Z,94807.63
2022-11-24T09:58:19.427Z,94809.91
2022-11-24T10:00:47.195Z,94807.44
2022-11-24T10:03:13.833Z,94811.69
2022-11-24T10:05:40.442Z,94808.25
2022-11-24T10:08:09.362Z,94810.84
2022-11-24T10:10:35.874Z,94812.53
2022-11-24T10:13:04.469Z,94806.78
2022-11-24T10:15:30.902Z,94805.13
2022-11-24T10:17:57.353Z,94802.44
2022-11-24T10:20:24.203Z,94805.69
2022-11-24T10:22:50.928Z,94810.97
2022-11-24T10:25:20.916Z,94800.28
2022-11-24T10:27:47.494Z,94797.94
2022-11-24T10:30:13.987Z,94799.56
2022-11-24T10:32:40.658Z,94804.50
2022-11-24T10:35:07.129Z,94804.13
2022-11-24T10:37:33.893Z,94809.34
2022-11-24T10:40:00.639Z,94806.97
2022-11-24T10:42:28.490Z,94802.59
2022-11-24T10:44:54.884Z,94798.41
2022-11-24T10:47:23.362Z,94802.72
2022-11-24T10:49:49.745Z,94798.44
2022-11-24T10:52:16.467Z,94797.28
2022-11-24T10:54:42.840Z,94800.94
2022-11-24T10:57:09.285Z,94787.56
2022-11-24T10:59:36.011Z,94795.13
2022-11-24T11:02:03.310Z,94802.91
2022-11-24T11:04:32.142Z,94812.50
2022-11-24T11:06:58.643Z,94814.63
2022-11-24T11:09:25.510Z,94821.06
2022-11-24T11:11:51.991Z,94810.34
2022-11-24T11:14:18.761Z,94797.53
2022-11-24T11:16:45.691Z,94799.19
2022-11-24T11:19:40.869Z,94801.13
2022-11-24T11:21:58.764Z,94807.03
2022-11-24T11:24:25.134Z,94804.91
2022-11-24T11:26:52.166Z,94813.44
2022-11-24T11:34:55.703Z,94808.13
2022-11-24T11:37:26.292Z,94813.28
2022-11-24T11:39:53.172Z,94812.44
2022-11-24T11:42:45.132Z,94809.44
2022-11-24T11:45:06.535Z,94813.72
2022-11-24T11:47:36.222Z,94809.78
2022-11-24T11:50:02.896Z,94811.88
2022-11-24T11:52:30.041Z,94806.78
2022-11-24T11:54:56.602Z,94808.38
2022-11-24T11:57:23.296Z,94799.16
2022-11-24T11:59:49.964Z,94801.81
2022-11-24T12:02:16.476Z,94807.72
2022-11-24T12:04:43.297Z,94799.28
2022-11-24T12:07:17.256Z,94800.06
2022-11-24T12:09:43.992Z,94803.72
2022-11-24T12:12:10.691Z,94799.16
2022-11-24T12:14:39.327Z,94798.00
2022-11-24T12:17:06.004Z,94806.28
2022-11-24T12:19:33.665Z,94810.56
2022-11-24T12:22:00.966Z,94810.41
2022-11-24T12:24:27.583Z,94812.00
2022-11-24T12:26:54.111Z,94806.84
2022-11-24T12:29:20.597Z,94812.78
2022-11-24T12:31:47.167Z,94805.41
2022-11-24T12:34:14.352Z,94805.50
2022-11-24T12:36:42.430Z,94798.06
2022-11-24T12:39:08.878Z,94802.44
2022-11-24T12:41:42.926Z,94801.91
2022-11-24T12:44:09.508Z,94802.38
2022-11-24T12:46:36.022Z,94798.28
2022-11-24T12:49:02.644Z,94800.94
2022-11-24T12:51:29.063Z,94799.16
2022-11-24T12:53:55.644Z,94796.53
2022-11-24T12:56:22.080Z,94789.94
2022-11-24T12:58:48.857Z,94787.78
2022-11-24T13:01:16.872Z,94787.06
2022-11-24T13:03:43.539Z,94774.66
2022-11-24T13:06:12.614Z,94778.75
2022-11-24T13:08:40.199Z,94783.56
2022-11-24T13:11:06.597Z,94781.50
2022-11-24T13:13:33.226Z,94784.78
2022-11-24T13:18:46.093Z,94782.25
2022-11-24T13:21:12.492Z,94779.88
2022-11-24T13:23:38.864Z,94782.72
2022-11-24T13:26:06.014Z,94778.59
2022-11-24T13:29:00.064Z,94782.69
2022-11-24T13:31:18.914Z,94782.00
2022-11-24T13:33:45.840Z,94772.59
2022-11-24T13:36:12.221Z,94766.19
2022-11-24T13:38:38.662Z,94775.03
2022-11-24T13:41:27.367Z,94759.91
2022-11-24T13:43:51.595Z,94756.31
2022-11-24T13:46:18.413Z,94744.69
2022-11-24T13:48:45.190Z,94747.56
2022-11-24T13:51:11.645Z,94748.84
2022-11-24T13:53:38.619Z,94744.09
2022-11-24T13:56:05.946Z,94739.28
2022-11-24T13:58:32.599Z,94739.69
2022-11-24T14:00:59.048Z,94735.38
2022-11-24T14:03:25.516Z,94731.59
2022-11-24T14:05:51.971Z,94731.44
2022-11-24T14:08:21.528Z,94722.47
2022-11-24T14:10:48.081Z,94722.28
2022-11-24T14:13:14.565Z,94715.16
2022-11-24T14:15:41.161Z,94719.00
2022-11-24T14:18:08.585Z,94721.66
2022-11-24T14:20:35.029Z,94707.41
2022-11-24T14:23:01.777Z,94709.44
2022-11-24T14:25:28.251Z,94697.91
2022-11-24T14:27:54.860Z,94697.91
2022-11-24T14:30:21.673Z,94696.28
2022-11-24T14:32:48.176Z,94695.91
2022-11-24T14:35:15.621Z,94693.41
2022-11-24T14:37:43.179Z,94698.81
2022-11-24T14:40:09.651Z,94693.63
2022-11-24T14:42:36.216Z,94692.72
2022-11-24T14:45:02.815Z,94694.50
2022-11-24T14:47:32.891Z,94692.50
2022-11-24T14:49:59.573Z,94690.25
2022-11-24T14:52:25.989Z,94692.72
2022-11-24T14:54:52.700Z,94695.84
2022-11-24T14:57:20.621Z,94696.91
2022-11-24T14:59:47.468Z,94692.72
2022-11-24T15:02:14.124Z,94686.31
2022-11-24T15:05:02.202Z,94684.59
2022-11-24T15:07:27.182Z,94686.50
2022-11-24T15:09:53.698Z,94676.19
2022-11-24T15:12:20.086Z,94670.19
2022-11-24T15:14:46.646Z,94677.34
2022-11-24T15:17:13.085Z,94679.03
2022-11-24T15:19:39.515Z,94680.56
2022-11-24T15:22:05.960Z,94678.47
2022-11-24T15:24:33.057Z,94666.16
2022-11-24T15:26:59.635Z,94664.41
2022-11-24T15:29:26.177Z,94674.03
2022-11-24T15:31:53.128Z,94663.53
2022-11-24T15:34:19.722Z,94669.69
2022-11-24T15:36:46.255Z,94663.50
2022-11-24T15:39:12.672Z,94677.53
2022-11-24T15:41:39.334Z,94682.53
2022-11-24T15:44:06.109Z,94683.88
2022-11-24T15:46:32.621Z,94682.91
2022-11-24T15:48:59.116Z,94702.72
2022-11-24T15:51:25.522Z,94701.41
2022-11-24T15:53:55.658Z,94700.50
2022-11-24T15:56:25.484Z,94703.53
2022-11-24T15:58:52.037Z,94703.59
2022-11-24T16:01:18.552Z,94703.47
2022-11-24T16:03:47.825Z,94700.22
2022-11-24T16:06:23.653Z,94705.69
2022-11-24T16:08:50.900Z,94706.84
2022-11-24T16:11:17.283Z,94704.69
2022-11-24T16:13:50.122Z,94705.38
2022-11-24T16:16:18.996Z,94708.34
2022-11-24T16:18:45.552Z,94717.06
2022-11-24T16:21:12.017Z,94706.06
2022-11-24T16:23:38.365Z,94712.47
2022-11-24T16:26:04.811Z,94709.34
2022-11-24T16:28:31.194Z,94708.19
2022-11-24T16:30:57.813Z,94715.09
2022-11-24T16:33:24.614Z,94711.50
2022-11-24T16:35:51.144Z,94714.94
2022-11-24T16:38:17.531Z,94712.31
2022-11-24T16:40:44.095Z,94711.31
2022-11-24T16:43:10.659Z,94713.94
2022-11-24T16:45:40.831Z,94713.28
2022-11-24T16:48:10.255Z,94703.59
2022-11-24T16:50:37.135Z,94705.75
2022-11-24T16:53:03.712Z,94718.06
2022-11-24T16:55:30.035Z,94717.41
2022-11-24T16:57:56.398Z,94721.19
2022-11-24T17:00:22.891Z,94718.72
2022-11-24T17:02:49.328Z,94720.53
2022-11-24T17:05:15.695Z,94715.59
2022-11-24T17:07:42.691Z,94723.81
2022-11-24T17:10:09.482Z,94721.81
2022-11-24T17:12:35.871Z,94718.03
2022-11-24T17:15:32.708Z,94719.97
2022-11-24T17:18:16.409Z,94713.22
2022-11-24T17:20:35.396Z,94716.44
2022-11-24T17:23:01.766Z,94724.47
2022-11-24T17:25:28.099Z,94715.25
2022-11-24T17:27:54.469Z,94705.22
2022-11-24T17:30:20.802Z,94709.31
2022-11-24T17:32:49.388Z,94709.66
2022-11-24T17:35:18.867Z,94708.16
2022-11-24T17:37:45.474Z,94711.41
2022-11-24T17:40:27.984Z,94712.53
2022-11-24T17:42:55.229Z,94705.78
2022-11-24T17:45:21.672Z,94701.03
2022-11-24T17:47:48.168Z,94691.34
2022-11-24T17:50:14.644Z,94685.28
2022-11-24T17:52:41.307Z,94685.59
2022-11-24T17:55:08.125Z,94689.34
2022-11-24T17:57:34.471Z,94680.97
2022-11-24T18:00:00.815Z,94684.72
2022-11-24T18:02:27.289Z,94680.59
2022-11-24T18:04:53.879Z,94680.88
2022-11-24T18:07:20.297Z,94688.91
2022-11-24T18:09:49.520Z,94693.66
2022-11-24T18:12:15.956Z,94686.91
2022-11-24T18:14:42.417Z,94697.56
2022-11-24T18:17:09.798Z,94693.44
2022-11-24T18:19:36.764Z,94684.41
2022-11-24T18:22:03.143Z,94695.19
2022-11-24T18:24:29.879Z,94697.97
2022-11-24T18:26:56.662Z,94701.38
2022-11-24T18:29:23.147Z,94697.59
2022-11-24T18:31:50.141Z,94703.63
2022-11-24T18:34:16.794Z,94706.13
2022-11-24T18:36:43.489Z,94707.53
2022-11-24T18:39:09.938Z,94715.56
2022-11-24T18:41:36.415Z,94717.94
2022-11-24T18:44:05.019Z,94721.16
2022-11-24T18:46:32.053Z,94720.66
2022-11-24T18:48:58.382Z,94734.09
2022-11-24T18:51:25.822Z,94738.94
2022-11-24T18:53:52.930Z,94744.78
2022-11-24T18:56:19.703Z,94744.28
2022-11-24T18:58:47.255Z,94733.94
2022-11-24T19:01:13.845Z,94726.88
2022-11-24T19:03:44.988Z,94715.59
2022-11-24T19:06:14.462Z,94712.66
2022-11-24T19:08:41.141Z,94711.38
2022-11-24T19:11:07.537Z,94704.34
2022-11-24T19:13:34.376Z,94702.84
2022-11-24T19:16:00.846Z,94692.69
2022-11-24T19:18:27.381Z,94698.72
2022-11-24T19:20:53.829Z,94700.38
2022-11-24T19:23:20.306Z,94693.63
2022-11-24T19:25:46.873Z,94695.22
2022-11-24T19:28:13.327Z,94699.25
2022-11-24T19:30:39.821Z,94704.66
2022-11-24T19:33:06.190Z,94702.72
2022-11-24T19:35:33.020Z,94705.69
2022-11-24T19:38:00.079Z,94705.84
2022-11-24T19:40:26.681Z,94701.28
2022-11-24T19:42:53.250Z,94696.06
2022-11-24T19:45:19.849Z,94697.31
2022-11-24T19:47:46.491Z,94693.75
2022-11-24T19:50:12.867Z,94686.84
2022-11-24T19:52:46.738Z,94688.63
2022-11-24T19:55:13.315Z,94688.03
2022-11-24T19:57:39.940Z,94677.88
2022-11-24T20:00:06.344Z,94686.41
2022-11-24T20:02:32.924Z,94684.91
2022-11-24T20:04:59.669Z,94686.69
2022-11-24T20:07:26.202Z,94684.47
2022-11-24T20:09:52.766Z,94689.91
2022-11-24T20:12:19.655Z,94690.13
2022-11-24T20:14:46.028Z,94690.72
2022-11-24T20:17:12.625Z,94694.22
2022-11-24T20:19:39.505Z,94694.97
2022-11-24T20:22:05.995Z,94698.69
2022-11-24T20:24:32.720Z,94698.69
2022-11-24T20:26:59.424Z,94701.44
2022-11-24T20:29:25.863Z,94700.19
2022-11-24T20:31:52.744Z,94700.19
2022-11-24T20:34:19.578Z,94695.34
2022-11-24T20:36:47.978Z,94700.81
2022-11-24T20:39:21.776Z,94700.88
2022-11-24T20:41:48.522Z,94701.97
2022-11-24T20:44:14.964Z,94701.22
2022-11-24T20:46:41.513Z,94690.31
2022-11-24T20:49:08.325Z,94694.94
2022-11-24T20:51:36.386Z,94704.00
2022-11-24T20:54:04.274Z,94712.00
2022-11-24T20:56:30.616Z,94716.94
2022-11-24T20:58:56.991Z,94723.97
2022-11-24T21:01:25.821Z,94725.78
2022-11-24T21:03:52.398Z,94718.88
2022-11-24T21:06:19.149Z,94714.31
2022-11-24T21:08:45.488Z,94712.22
2022-11-24T21:11:11.963Z,94706.47
2022-11-24T21:13:38.336Z,94702.03
2022-11-24T21:16:04.955Z,94713.66
2022-11-24T21:18:32.399Z,94715.44
2022-11-24T21:20:58.771Z,94706.78
2022-11-24T21:23:25.105Z,94708.41
2022-11-24T21:25:51.458Z,94709.22
2022-11-24T21:28:17.809Z,94715.31
2022-11-24T21:30:44.173Z,94733.50
2022-11-24T21:33:10.550Z,94730.19
2022-11-24T21:35:36.936Z,94730.72
2022-11-24T21:38:05.255Z,94726.59
2022-11-24T21:40:31.683Z,94723.84
2022-11-24T21:42:58.372Z,94718.44
2022-11-24T21:45:24.760Z,94710.28
2022-11-24T21:47:51.277Z,94721.31
2022-11-24T21:50:17.751Z,94731.47
2022-11-24T21:52:45.530Z,94732.13
2022-11-24T21:55:12.306Z,94742.53
2022-11-24T21:57:38.816Z,94753.34
2022-11-24T22:00:05.319Z,94747.09
2022-11-24T22:02:32.032Z,94741.19
2022-11-24T22:04:58.386Z,94738.72
2022-11-24T22:07:25.192Z,94746.22
2022-11-24T22:09:52.702Z,94744.56
2022-11-24T22:12:19.166Z,94750.13
2022-11-24T22:14:45.905Z,94745.81
2022-11-24T22:17:12.408Z,94742.38
2022-11-24T22:19:38.787Z,94740.75
2022-11-24T22:22:05.150Z,94750.91
2022-11-24T22:24:31.754Z,94758.94
2022-11-24T22:26:58.211Z,94761.97
2022-11-24T22:29:24.605Z,94766.69
2022-11-24T22:31:51.346Z,94774.28
2022-11-24T22:34:17.769Z,94778.00
2022-11-24T22:36:44.204Z,94790.44
2022-11-24T22:39:10.596Z,94788.63
2022-11-24T22:41:36.999Z,94790.84
2022-11-24T22:44:03.497Z,94791.16
2022-11-24T22:46:29.835Z,94799.28
2022-11-24T22:48:56.204Z,94800.66
2022-11-24T22:51:22.572Z,94791.84
2022-11-24T22:53:49.035Z,94783.16
2022-11-24T22:56:15.387Z,94779.44
2022-11-24T22:58:41.778Z,94785.88
2022-11-24T23:01:08.130Z,94790.78
2022-11-24T23:03:34.518Z,94796.72
2022-11-24T23:06:02.973Z,94796.97
2022-11-24T23:08:29.371Z,94796.59
2022-11-24T23:10:55.780Z,94788.53
2022-11-24T23:13:22.459Z,94799.03
2022-11-24T23:15:48.810Z,94797.09
2022-11-24T23:18:15.390Z,94795.81
2022-11-24T23:20:41.766Z,94796.50
2022-11-24T23:23:08.341Z,94790.13
2022-11-24T23:25:34.785Z,94778.53
2022-11-24T23:28:01.178Z,94788.84
2022-11-24T23:30:28.132Z,94784.59
2022-11-24T23:32:54.673Z,94790.28
2022-11-24T23:35:21.276Z,94781.22
2022-11-24T23:38:09.803Z,94788.38
2022-11-24T23:40:37.424Z,94783.53
2022-11-24T23:43:04.144Z,94772.78
2022-11-24T23:45:30.920Z,94767.22
2022-11-24T23:47:57.407Z,94757.72
2022-11-24T23:50:23.912Z,94757.41
2022-11-24T23:52:50.371Z,94749.28
2022-11-24T23:55:16.824Z,94741.63
2022-11-24T23:57:43.372Z,94745.59
